createdAt,value
2018-01-10T00:00:17.114Z,6.64
2018-01-10T00:01:17.107Z,6.70
2018-01-10T00:02:17.102Z,6.64
2018-01-10T00:03:17.090Z,6.74
2018-01-10T00:04:38.095Z,6.69
2018-01-10T00:05:17.074Z,6.67
2018-01-10T00:06:17.073Z,6.66
2018-01-10T00:07:17.143Z,6.66
2018-01-10T00:08:17.057Z,6.72
2018-01-10T00:09:17.048Z,6.70
2018-01-10T00:10:38.053Z,6.70
2018-01-10T00:11:17.038Z,6.72
2018-01-10T00:12:17.031Z,6.70
2018-01-10T00:13:17.026Z,6.77
2018-01-10T00:14:17.015Z,6.74
2018-01-10T00:15:17.008Z,6.69
2018-01-10T00:16:38.009Z,6.69
2018-01-10T00:17:16.999Z,6.67
2018-01-10T00:18:16.987Z,6.64
2018-01-10T00:19:16.981Z,6.69
2018-01-10T00:20:16.975Z,6.70
2018-01-10T00:21:16.969Z,6.70
2018-01-10T00:22:37.967Z,6.78
2018-01-10T00:23:16.954Z,6.72
2018-01-10T00:24:16.942Z,6.67
2018-01-10T00:25:16.938Z,6.70
2018-01-10T00:26:16.938Z,6.75
2018-01-10T00:27:16.927Z,6.81
2018-01-10T00:28:37.924Z,6.77
2018-01-10T00:29:16.914Z,6.79
2018-01-10T00:30:16.947Z,6.74
2018-01-10T00:31:16.901Z,6.75
2018-01-10T00:32:16.895Z,6.64
2018-01-10T00:33:16.885Z,6.74
2018-01-10T00:34:37.888Z,6.69
2018-01-10T00:35:16.872Z,6.74
2018-01-10T00:36:16.865Z,6.70
2018-01-10T00:37:16.858Z,6.74
2018-01-10T00:38:16.850Z,6.72
2018-01-10T00:39:16.845Z,6.74
2018-01-10T00:40:37.845Z,6.69
2018-01-10T00:41:16.830Z,6.72
2018-01-10T00:42:16.824Z,6.77
2018-01-10T00:43:16.817Z,6.67
2018-01-10T00:44:16.807Z,6.78
2018-01-10T00:45:16.803Z,6.67
2018-01-10T00:46:37.804Z,6.67
2018-01-10T00:47:16.796Z,6.74
2018-01-10T00:48:16.784Z,6.72
2018-01-10T00:49:16.775Z,6.72
2018-01-10T00:50:16.767Z,6.67
2018-01-10T00:51:16.764Z,6.78
2018-01-10T00:52:37.761Z,6.67
2018-01-10T00:53:16.747Z,6.72
2018-01-10T00:54:16.744Z,6.81
2018-01-10T00:55:16.733Z,6.81
2018-01-10T00:56:16.728Z,6.78
2018-01-10T00:57:16.722Z,6.77
2018-01-10T00:58:37.731Z,6.78
2018-01-10T00:59:16.712Z,6.75
2018-01-10T01:00:16.701Z,6.70
2018-01-10T01:01:16.695Z,6.74
2018-01-10T01:02:16.690Z,6.75
2018-01-10T01:03:16.677Z,6.70
2018-01-10T01:04:37.680Z,6.67
2018-01-10T01:05:16.663Z,6.70
2018-01-10T01:06:16.661Z,6.60
2018-01-10T01:07:16.654Z,6.62
2018-01-10T01:08:16.647Z,6.64
2018-01-10T01:09:16.638Z,6.62
2018-01-10T01:10:37.640Z,6.62
2018-01-10T01:11:16.622Z,6.54
2018-01-10T01:12:16.617Z,6.54
2018-01-10T01:13:16.613Z,6.59
2018-01-10T01:14:16.605Z,6.54
2018-01-10T01:15:16.597Z,6.42
2018-01-10T01:16:37.597Z,6.57
2018-01-10T01:17:16.583Z,6.45
2018-01-10T01:18:16.578Z,6.57
2018-01-10T01:19:16.574Z,6.62
2018-01-10T01:20:16.565Z,6.59
2018-01-10T01:21:16.557Z,6.51
2018-01-10T01:22:37.556Z,6.52
2018-01-10T01:23:16.550Z,6.59
2018-01-10T01:24:16.536Z,6.64
2018-01-10T01:25:16.534Z,6.67
2018-01-10T01:26:16.523Z,6.66
2018-01-10T01:27:16.516Z,6.88
2018-01-10T01:28:37.511Z,6.92
2018-01-10T01:29:16.506Z,6.88
2018-01-10T01:30:16.493Z,6.93
2018-01-10T01:31:16.490Z,6.96
2018-01-10T01:32:16.481Z,7.06
2018-01-10T01:33:16.474Z,6.92
2018-01-10T01:34:37.474Z,6.97
2018-01-10T01:35:16.457Z,7.03
2018-01-10T01:36:16.453Z,7.02
2018-01-10T01:37:16.447Z,7.00
2018-01-10T01:38:16.438Z,7.06
2018-01-10T01:39:16.431Z,7.11
2018-01-10T01:40:37.432Z,7.10
2018-01-10T01:41:16.415Z,7.13
2018-01-10T01:42:16.407Z,7.11
2018-01-10T01:43:16.405Z,7.00
2018-01-10T01:44:16.399Z,7.03
2018-01-10T01:45:16.388Z,6.99
2018-01-10T01:46:37.391Z,7.00
2018-01-10T01:47:16.377Z,7.00
2018-01-10T01:48:16.371Z,7.03
2018-01-10T01:49:16.364Z,7.06
2018-01-10T01:50:16.357Z,6.99
2018-01-10T01:51:16.349Z,7.02
2018-01-10T01:52:37.346Z,7.00
2018-01-10T01:53:16.334Z,6.95
2018-01-10T01:54:16.328Z,6.93
2018-01-10T01:55:16.323Z,6.88
2018-01-10T01:56:16.319Z,6.92
2018-01-10T01:57:16.307Z,6.89
2018-01-10T01:58:37.307Z,6.81
2018-01-10T01:59:16.293Z,6.87
2018-01-10T02:00:16.285Z,6.84
2018-01-10T02:01:16.280Z,6.88
2018-01-10T02:02:16.271Z,6.85
2018-01-10T02:03:16.266Z,6.92
2018-01-10T02:04:37.265Z,6.81
2018-01-10T02:05:16.255Z,6.92
2018-01-10T02:06:16.246Z,6.89
2018-01-10T02:07:16.238Z,6.82
2018-01-10T02:08:16.230Z,6.81
2018-01-10T02:09:16.227Z,6.85
2018-01-10T02:10:37.224Z,6.88
2018-01-10T02:11:16.212Z,6.82
2018-01-10T02:12:16.199Z,6.78
2018-01-10T02:13:16.197Z,6.81
2018-01-10T02:14:16.191Z,6.84
2018-01-10T02:15:16.181Z,6.72
2018-01-10T02:16:37.177Z,6.78
2018-01-10T02:17:16.169Z,6.78
2018-01-10T02:18:16.164Z,6.72
2018-01-10T02:19:16.170Z,6.67
2018-01-10T02:20:16.164Z,6.72
2018-01-10T02:21:16.141Z,6.75
2018-01-10T02:22:37.138Z,6.75
2018-01-10T02:23:16.131Z,6.79
2018-01-10T02:24:16.120Z,6.78
2018-01-10T02:25:16.112Z,6.84
2018-01-10T02:26:27.794Z,6.84
2018-01-10T02:27:16.097Z,6.89
2018-01-10T02:28:37.100Z,6.95
2018-01-10T02:29:16.090Z,6.96
2018-01-10T02:30:16.126Z,6.87
2018-01-10T02:31:16.075Z,6.87
2018-01-10T02:32:16.095Z,6.93
2018-01-10T02:33:16.055Z,6.89
2018-01-10T02:34:37.060Z,6.85
2018-01-10T02:35:16.054Z,6.95
2018-01-10T02:36:16.043Z,6.89
2018-01-10T02:37:16.046Z,6.93
2018-01-10T02:38:16.025Z,6.87
2018-01-10T02:39:16.027Z,6.89
2018-01-10T02:40:37.021Z,6.88
2018-01-10T02:41:16.000Z,6.87
2018-01-10T02:42:15.996Z,6.93
2018-01-10T02:43:15.995Z,6.88
2018-01-10T02:44:15.983Z,6.85
2018-01-10T02:45:15.992Z,6.93
2018-01-10T02:46:36.977Z,6.97
2018-01-10T02:47:15.973Z,6.92
2018-01-10T02:48:15.975Z,6.99
2018-01-10T02:49:15.947Z,6.87
2018-01-10T02:50:15.946Z,6.99
2018-01-10T02:51:15.935Z,6.92
2018-01-10T02:52:36.933Z,6.92
2018-01-10T02:53:15.917Z,6.89
2018-01-10T02:54:15.918Z,6.93
2018-01-10T02:55:15.908Z,7.00
2018-01-10T02:56:15.899Z,6.99
2018-01-10T02:57:15.896Z,7.02
2018-01-10T02:58:36.891Z,7.00
2018-01-10T02:59:15.880Z,6.95
2018-01-10T03:00:15.871Z,6.96
2018-01-10T03:01:15.861Z,7.03
2018-01-10T03:02:15.859Z,6.99
2018-01-10T03:03:15.848Z,7.02
2018-01-10T03:04:36.848Z,7.02
2018-01-10T03:05:15.847Z,7.00
2018-01-10T03:06:15.828Z,7.06
2018-01-10T03:07:15.825Z,7.03
2018-01-10T03:08:15.819Z,7.02
2018-01-10T03:09:15.809Z,7.14
2018-01-10T03:10:36.808Z,7.10
2018-01-10T03:11:15.795Z,7.11
2018-01-10T03:12:15.786Z,7.11
2018-01-10T03:13:15.787Z,7.10
2018-01-10T03:14:15.775Z,7.14
2018-01-10T03:15:15.767Z,7.07
2018-01-10T03:16:36.766Z,7.14
2018-01-10T03:17:15.755Z,7.07
2018-01-10T03:18:15.746Z,7.10
2018-01-10T03:19:15.742Z,7.06
2018-01-10T03:20:15.735Z,7.13
2018-01-10T03:21:15.724Z,7.15
2018-01-10T03:22:36.736Z,7.07
2018-01-10T03:23:15.714Z,7.17
2018-01-10T03:24:15.706Z,7.15
2018-01-10T03:25:15.701Z,7.18
2018-01-10T03:26:15.693Z,7.17
2018-01-10T03:27:15.698Z,7.17
2018-01-10T03:28:36.685Z,7.15
2018-01-10T03:29:15.672Z,7.15
2018-01-10T03:30:15.667Z,7.18
2018-01-10T03:31:15.664Z,7.20
2018-01-10T03:32:15.653Z,7.11
2018-01-10T03:33:15.648Z,7.18
2018-01-10T03:34:36.661Z,7.14
2018-01-10T03:35:15.637Z,7.15
2018-01-10T03:36:15.626Z,7.15
2018-01-10T03:37:15.619Z,7.15
2018-01-10T03:38:15.609Z,7.14
2018-01-10T03:39:15.607Z,7.18
2018-01-10T03:40:36.608Z,7.14
2018-01-10T03:41:15.590Z,7.13
2018-01-10T03:42:15.583Z,7.18
2018-01-10T03:43:15.580Z,7.13
2018-01-10T03:44:15.568Z,7.11
2018-01-10T03:45:15.562Z,7.17
2018-01-10T03:46:36.560Z,7.25
2018-01-10T03:47:15.548Z,7.20
2018-01-10T03:48:15.544Z,7.15
2018-01-10T03:49:15.537Z,7.17
2018-01-10T03:50:15.530Z,7.20
2018-01-10T03:51:15.524Z,7.15
2018-01-10T03:52:36.520Z,7.17
2018-01-10T03:53:15.509Z,7.15
2018-01-10T03:54:15.505Z,7.14
2018-01-10T03:55:15.495Z,7.14
2018-01-10T03:56:15.488Z,7.21
2018-01-10T03:57:15.479Z,7.13
2018-01-10T03:58:36.485Z,7.15
2018-01-10T03:59:15.470Z,7.17
2018-01-10T04:00:15.461Z,7.13
2018-01-10T04:01:15.455Z,7.15
2018-01-10T04:02:15.447Z,7.18
2018-01-10T04:03:15.441Z,7.20
2018-01-10T04:04:36.441Z,7.21
2018-01-10T04:05:15.424Z,7.21
2018-01-10T04:06:15.426Z,7.13
2018-01-10T04:07:15.416Z,7.17
2018-01-10T04:08:15.403Z,7.17
2018-01-10T04:09:15.398Z,7.15
2018-01-10T04:10:36.403Z,7.21
2018-01-10T04:11:15.388Z,7.21
2018-01-10T04:12:15.379Z,7.13
2018-01-10T04:13:15.380Z,7.20
2018-01-10T04:14:15.366Z,7.15
2018-01-10T04:15:15.357Z,7.15
2018-01-10T04:16:36.358Z,7.15
2018-01-10T04:17:15.346Z,7.17
2018-01-10T04:18:15.336Z,7.18
2018-01-10T04:19:15.332Z,7.20
2018-01-10T04:20:15.326Z,7.24
2018-01-10T04:21:15.317Z,7.24
2018-01-10T04:22:36.322Z,7.15
2018-01-10T04:23:15.304Z,7.17
2018-01-10T04:24:15.299Z,7.25
2018-01-10T04:25:15.288Z,7.15
2018-01-10T04:26:15.286Z,7.20
2018-01-10T04:27:15.278Z,7.18
2018-01-10T04:28:36.278Z,7.20
2018-01-10T04:29:15.268Z,7.15
2018-01-10T04:30:15.259Z,7.18
2018-01-10T04:31:15.254Z,7.14
2018-01-10T04:32:15.276Z,7.15
2018-01-10T04:33:15.238Z,7.15
2018-01-10T04:34:36.242Z,7.20
2018-01-10T04:35:15.221Z,7.23
2018-01-10T04:36:15.218Z,7.20
2018-01-10T04:37:15.210Z,7.21
2018-01-10T04:38:15.201Z,7.28
2018-01-10T04:39:15.198Z,7.20
2018-01-10T04:40:36.196Z,7.15
2018-01-10T04:41:15.186Z,7.18
2018-01-10T04:42:15.177Z,7.20
2018-01-10T04:43:15.170Z,7.25
2018-01-10T04:44:15.167Z,7.23
2018-01-10T04:45:15.156Z,7.31
2018-01-10T04:46:36.156Z,7.21
2018-01-10T04:47:15.141Z,7.28
2018-01-10T04:48:15.136Z,7.21
2018-01-10T04:49:15.130Z,7.31
2018-01-10T04:50:15.119Z,7.23
2018-01-10T04:51:15.114Z,7.23
2018-01-10T04:52:36.114Z,7.20
2018-01-10T04:53:15.098Z,7.20
2018-01-10T04:54:15.096Z,7.23
2018-01-10T04:55:15.090Z,7.21
2018-01-10T04:56:15.082Z,7.20
2018-01-10T04:57:15.071Z,7.14
2018-01-10T04:58:36.075Z,7.20
2018-01-10T04:59:15.063Z,7.25
2018-01-10T05:00:15.054Z,7.18
2018-01-10T05:01:15.047Z,7.17
2018-01-10T05:02:15.043Z,7.20
2018-01-10T05:03:15.034Z,7.32
2018-01-10T05:04:36.034Z,7.21
2018-01-10T05:05:15.024Z,7.36
2018-01-10T05:06:15.015Z,7.21
2018-01-10T05:07:15.009Z,7.23
2018-01-10T05:08:15.000Z,7.23
2018-01-10T05:09:14.993Z,7.21
2018-01-10T05:10:35.991Z,7.33
2018-01-10T05:11:14.986Z,7.23
2018-01-10T05:12:14.974Z,7.33
2018-01-10T05:13:14.966Z,7.23
2018-01-10T05:14:14.960Z,7.29
2018-01-10T05:15:14.955Z,7.28
2018-01-10T05:16:35.950Z,7.25
2018-01-10T05:17:14.940Z,7.33
2018-01-10T05:18:14.935Z,7.31
2018-01-10T05:19:14.926Z,7.25
2018-01-10T05:20:14.918Z,7.21
2018-01-10T05:21:14.920Z,7.25
2018-01-10T05:22:35.912Z,7.17
2018-01-10T05:23:14.896Z,7.20
2018-01-10T05:24:14.892Z,7.20
2018-01-10T05:25:14.885Z,7.25
2018-01-10T05:26:14.879Z,7.18
2018-01-10T05:27:14.878Z,7.18
2018-01-10T05:28:35.869Z,7.20
2018-01-10T05:29:14.857Z,7.21
2018-01-10T05:30:14.867Z,7.18
2018-01-10T05:31:14.890Z,7.24
2018-01-10T05:32:14.854Z,7.24
2018-01-10T05:33:14.863Z,7.21
2018-01-10T05:34:35.839Z,7.24
2018-01-10T05:35:14.856Z,7.24
2018-01-10T05:36:14.854Z,7.21
2018-01-10T05:37:14.816Z,7.23
2018-01-10T05:38:14.825Z,7.17
2018-01-10T05:39:14.813Z,7.21
2018-01-10T05:40:35.832Z,7.20
2018-01-10T05:41:14.792Z,7.21
2018-01-10T05:42:14.774Z,7.14
2018-01-10T05:43:14.792Z,7.23
2018-01-10T05:44:14.768Z,7.28
2018-01-10T05:45:14.772Z,7.25
2018-01-10T05:46:35.768Z,7.24
2018-01-10T05:47:14.737Z,7.21
2018-01-10T05:48:14.758Z,7.24
2018-01-10T05:49:14.731Z,7.33
2018-01-10T05:50:14.742Z,7.20
2018-01-10T05:51:14.723Z,7.24
2018-01-10T05:52:35.726Z,7.21
2018-01-10T05:53:14.722Z,7.31
2018-01-10T05:54:14.699Z,7.23
2018-01-10T05:55:14.695Z,7.31
2018-01-10T05:56:14.705Z,7.23
2018-01-10T05:57:14.678Z,7.28
2018-01-10T05:58:35.702Z,7.31
2018-01-10T05:59:14.663Z,7.15
2018-01-10T06:00:14.664Z,7.17
2018-01-10T06:01:14.653Z,7.25
2018-01-10T06:02:14.646Z,7.33
2018-01-10T06:03:14.646Z,7.24
2018-01-10T06:04:35.641Z,7.33
2018-01-10T06:05:14.621Z,7.21
2018-01-10T06:06:14.606Z,7.32
2018-01-10T06:07:14.600Z,7.23
2018-01-10T06:08:14.602Z,7.24
2018-01-10T06:09:14.608Z,7.28
2018-01-10T06:10:35.609Z,7.33
2018-01-10T06:11:14.595Z,7.23
2018-01-10T06:12:14.572Z,7.25
2018-01-10T06:13:14.591Z,7.29
2018-01-10T06:14:14.565Z,7.18
2018-01-10T06:15:14.561Z,7.20
2018-01-10T06:16:35.557Z,7.23
2018-01-10T06:17:14.551Z,7.25
2018-01-10T06:18:14.539Z,7.23
2018-01-10T06:19:14.525Z,7.28
2018-01-10T06:20:14.521Z,7.25
2018-01-10T06:21:14.508Z,7.28
2018-01-10T06:22:35.558Z,7.23
2018-01-10T06:23:14.503Z,7.33
2018-01-10T06:24:14.488Z,7.28
2018-01-10T06:25:14.486Z,7.23
2018-01-10T06:26:14.473Z,7.28
2018-01-10T06:27:14.471Z,7.18
2018-01-10T06:28:35.472Z,7.24
2018-01-10T06:29:14.455Z,7.23
2018-01-10T06:30:14.449Z,7.23
2018-01-10T06:31:14.439Z,7.23
2018-01-10T06:32:14.437Z,7.36
2018-01-10T06:33:14.429Z,7.28
2018-01-10T06:34:35.431Z,7.31
2018-01-10T06:35:14.532Z,7.36
2018-01-10T06:36:14.404Z,7.29
2018-01-10T06:37:14.402Z,7.33
2018-01-10T06:38:14.396Z,7.31
2018-01-10T06:39:14.388Z,7.36
2018-01-10T06:40:35.386Z,7.36
2018-01-10T06:41:14.373Z,7.33
2018-01-10T06:42:14.368Z,7.35
2018-01-10T06:43:14.365Z,7.38
2018-01-10T06:44:14.355Z,7.35
2018-01-10T06:45:14.347Z,7.36
2018-01-10T06:46:35.349Z,7.39
2018-01-10T06:47:14.335Z,7.38
2018-01-10T06:48:14.328Z,7.35
2018-01-10T06:49:14.321Z,7.35
2018-01-10T06:50:14.316Z,7.38
2018-01-10T06:51:14.309Z,7.36
2018-01-10T06:52:35.307Z,7.32
2018-01-10T06:53:14.292Z,7.35
2018-01-10T06:54:14.288Z,7.35
2018-01-10T06:55:14.282Z,7.39
2018-01-10T06:56:14.275Z,7.42
2018-01-10T06:57:14.267Z,7.33
2018-01-10T06:58:35.270Z,7.36
2018-01-10T06:59:14.254Z,7.42
2018-01-10T07:00:14.248Z,7.36
2018-01-10T07:01:14.240Z,7.38
2018-01-10T07:02:14.237Z,7.36
2018-01-10T07:03:14.229Z,7.31
2018-01-10T07:04:35.230Z,7.31
2018-01-10T07:05:14.215Z,7.32
2018-01-10T07:06:14.207Z,7.33
2018-01-10T07:07:14.258Z,7.35
2018-01-10T07:08:14.200Z,7.29
2018-01-10T07:09:14.189Z,7.20
2018-01-10T07:10:35.191Z,7.36
2018-01-10T07:11:14.176Z,7.24
2018-01-10T07:12:14.172Z,7.29
2018-01-10T07:13:14.163Z,7.32
2018-01-10T07:14:14.173Z,7.36
2018-01-10T07:15:14.151Z,7.29
2018-01-10T07:16:35.149Z,7.23
2018-01-10T07:17:14.137Z,7.31
2018-01-10T07:18:14.132Z,7.29
2018-01-10T07:19:14.123Z,7.21
2018-01-10T07:20:14.113Z,7.23
2018-01-10T07:21:14.108Z,7.39
2018-01-10T07:22:35.110Z,7.36
2018-01-10T07:23:14.096Z,7.23
2018-01-10T07:24:14.089Z,7.36
2018-01-10T07:25:14.085Z,7.31
2018-01-10T07:26:14.075Z,7.35
2018-01-10T07:27:14.074Z,7.33
2018-01-10T07:28:35.068Z,7.32
2018-01-10T07:29:14.060Z,7.33
2018-01-10T07:30:14.049Z,7.31
2018-01-10T07:31:14.042Z,7.32
2018-01-10T07:32:14.038Z,7.33
2018-01-10T07:33:14.033Z,7.29
2018-01-10T07:34:35.033Z,7.23
2018-01-10T07:35:14.028Z,7.20
2018-01-10T07:36:14.011Z,7.23
2018-01-10T07:37:14.006Z,7.23
2018-01-10T07:38:14.000Z,7.23
2018-01-10T07:39:13.995Z,7.14
2018-01-10T07:40:34.991Z,7.28
2018-01-10T07:41:13.976Z,7.17
2018-01-10T07:42:13.975Z,7.18
2018-01-10T07:43:13.968Z,7.23
2018-01-10T07:44:13.959Z,7.15
2018-01-10T07:45:13.950Z,7.14
2018-01-10T07:46:34.966Z,7.20
2018-01-10T07:47:13.939Z,7.18
2018-01-10T07:48:13.931Z,7.14
2018-01-10T07:49:13.927Z,7.03
2018-01-10T07:50:13.926Z,7.06
2018-01-10T07:51:13.914Z,7.17
2018-01-10T07:52:34.915Z,7.03
2018-01-10T07:53:13.898Z,6.95
2018-01-10T07:54:13.894Z,7.02
2018-01-10T07:55:13.893Z,7.05
2018-01-10T07:56:13.885Z,7.00
2018-01-10T07:57:13.879Z,7.02
2018-01-10T07:58:34.876Z,6.99
2018-01-10T07:59:13.862Z,7.00
2018-01-10T08:00:13.854Z,6.96
2018-01-10T08:01:13.844Z,6.88
2018-01-10T08:02:13.840Z,6.93
2018-01-10T08:03:13.834Z,6.85
2018-01-10T08:04:34.834Z,6.92
2018-01-10T08:05:13.820Z,6.85
2018-01-10T08:06:13.815Z,6.92
2018-01-10T08:07:13.810Z,6.87
2018-01-10T08:08:13.800Z,6.87
2018-01-10T08:09:13.792Z,6.78
2018-01-10T08:10:34.793Z,6.87
2018-01-10T08:11:13.781Z,6.87
2018-01-10T08:12:13.772Z,6.81
2018-01-10T08:13:13.768Z,6.89
2018-01-10T08:14:13.759Z,6.89
2018-01-10T08:15:13.750Z,6.81
2018-01-10T08:16:34.750Z,6.81
2018-01-10T08:17:13.739Z,6.72
2018-01-10T08:18:13.735Z,6.72
2018-01-10T08:19:13.727Z,6.75
2018-01-10T08:20:13.720Z,6.72
2018-01-10T08:21:13.711Z,6.74
2018-01-10T08:22:34.713Z,6.72
2018-01-10T08:23:13.702Z,6.74
2018-01-10T08:24:13.692Z,6.67
2018-01-10T08:25:13.684Z,6.69
2018-01-10T08:26:13.678Z,6.74
2018-01-10T08:27:13.674Z,6.70
2018-01-10T08:28:34.672Z,6.69
2018-01-10T08:29:13.659Z,6.67
2018-01-10T08:30:13.651Z,6.66
2018-01-10T08:31:13.644Z,6.75
2018-01-10T08:32:13.635Z,6.69
2018-01-10T08:33:13.634Z,6.74
2018-01-10T08:34:34.632Z,6.75
2018-01-10T08:35:13.623Z,6.75
2018-01-10T08:36:13.608Z,6.82
2018-01-10T08:37:13.605Z,6.74
2018-01-10T08:38:13.597Z,6.84
2018-01-10T08:39:13.591Z,6.92
2018-01-10T08:40:34.591Z,6.87
2018-01-10T08:41:13.574Z,6.75
2018-01-10T08:42:13.569Z,6.84
2018-01-10T08:43:13.565Z,6.87
2018-01-10T08:44:13.560Z,6.84
2018-01-10T08:45:13.550Z,6.85
2018-01-10T08:46:34.555Z,6.85
2018-01-10T08:47:13.536Z,6.99
2018-01-10T08:48:13.530Z,6.92
2018-01-10T08:49:13.523Z,6.88
2018-01-10T08:50:13.517Z,6.95
2018-01-10T08:51:13.511Z,7.00
2018-01-10T08:52:34.510Z,7.03
2018-01-10T08:53:13.496Z,7.13
2018-01-10T08:54:13.487Z,7.11
2018-01-10T08:55:13.485Z,7.18
2018-01-10T08:56:13.474Z,7.15
2018-01-10T08:57:13.471Z,7.18
2018-01-10T08:58:34.471Z,7.18
2018-01-10T08:59:13.491Z,7.29
2018-01-10T09:00:13.449Z,7.23
2018-01-10T09:01:13.440Z,7.21
2018-01-10T09:02:13.433Z,7.20
2018-01-10T09:03:13.428Z,7.18
2018-01-10T09:04:34.430Z,7.28
2018-01-10T09:05:13.416Z,7.25
2018-01-10T09:06:13.412Z,7.32
2018-01-10T09:07:13.404Z,7.33
2018-01-10T09:08:13.395Z,7.36
2018-01-10T09:09:13.391Z,7.42
2018-01-10T09:10:34.393Z,7.36
2018-01-10T09:11:13.378Z,7.42
2018-01-10T09:12:13.368Z,7.43
2018-01-10T09:13:13.363Z,7.50
2018-01-10T09:14:13.355Z,7.57
2018-01-10T09:15:13.361Z,7.57
2018-01-10T09:16:34.348Z,7.50
2018-01-10T09:17:13.344Z,7.51
2018-01-10T09:18:13.334Z,7.63
2018-01-10T09:19:13.326Z,7.63
2018-01-10T09:20:13.316Z,7.67
2018-01-10T09:21:13.312Z,7.66
2018-01-10T09:22:34.310Z,7.56
2018-01-10T09:23:13.303Z,7.67
2018-01-10T09:24:13.292Z,7.75
2018-01-10T09:25:13.286Z,7.79
2018-01-10T09:26:13.280Z,7.80
2018-01-10T09:27:13.274Z,7.85
2018-01-10T09:28:34.274Z,7.93
2018-01-10T09:29:13.264Z,8.05
2018-01-10T09:30:13.254Z,7.91
2018-01-10T09:31:13.249Z,8.01
2018-01-10T09:32:13.240Z,8.01
2018-01-10T09:33:13.232Z,8.08
2018-01-10T09:34:34.237Z,8.09
2018-01-10T09:35:13.222Z,8.15
2018-01-10T09:36:13.227Z,8.18
2018-01-10T09:37:13.211Z,8.15
2018-01-10T09:38:13.203Z,8.23
2018-01-10T09:39:13.197Z,8.12
2018-01-10T09:40:34.197Z,8.13
2018-01-10T09:41:13.193Z,8.23
2018-01-10T09:42:13.196Z,8.16
2018-01-10T09:43:13.168Z,8.20
2018-01-10T09:44:13.164Z,8.24
2018-01-10T09:45:13.159Z,8.24
2018-01-10T09:46:34.160Z,8.36
2018-01-10T09:47:13.144Z,8.30
2018-01-10T09:48:13.146Z,8.36
2018-01-10T09:49:13.134Z,8.36
2018-01-10T09:50:13.134Z,8.30
2018-01-10T09:51:13.124Z,8.27
2018-01-10T09:52:34.147Z,8.33
2018-01-10T09:53:13.115Z,8.28
2018-01-10T09:54:13.103Z,8.30
2018-01-10T09:55:13.097Z,8.42
2018-01-10T09:56:13.091Z,8.34
2018-01-10T09:57:13.088Z,8.44
2018-01-10T09:59:13.109Z,8.42
2018-01-10T10:00:13.101Z,8.37
2018-01-10T10:01:13.060Z,8.37
2018-01-10T10:02:13.055Z,8.37
2018-01-10T10:03:13.055Z,8.36
2018-01-10T10:04:34.049Z,8.33
2018-01-10T10:05:13.039Z,8.27
2018-01-10T10:06:13.034Z,8.24
2018-01-10T10:07:13.025Z,8.24
2018-01-10T10:08:13.016Z,8.27
2018-01-10T10:09:13.026Z,8.24
2018-01-10T10:10:34.017Z,8.24
2018-01-10T10:11:13.000Z,8.27
2018-01-10T10:12:12.994Z,8.23
2018-01-10T10:13:13.002Z,8.10
2018-01-10T10:14:12.984Z,8.13
2018-01-10T10:15:12.976Z,8.12
2018-01-10T10:16:33.976Z,8.12
2018-01-10T10:17:12.967Z,8.15
2018-01-10T10:18:12.956Z,8.12
2018-01-10T10:19:12.964Z,8.18
2018-01-10T10:20:12.960Z,8.10
2018-01-10T10:21:12.958Z,8.09
2018-01-10T10:22:33.942Z,8.18
2018-01-10T10:23:12.964Z,8.15
2018-01-10T10:24:12.933Z,8.24
2018-01-10T10:25:12.932Z,8.26
2018-01-10T10:26:12.931Z,8.24
2018-01-10T10:27:12.906Z,8.24
2018-01-10T10:28:33.900Z,8.26
2018-01-10T10:29:12.991Z,8.31
2018-01-10T10:30:12.883Z,8.26
2018-01-10T10:31:12.929Z,8.23
2018-01-10T10:32:12.881Z,8.28
2018-01-10T10:33:12.867Z,8.34
2018-01-10T10:34:33.870Z,8.33
2018-01-10T10:35:12.853Z,8.41
2018-01-10T10:36:12.849Z,8.38
2018-01-10T10:37:12.845Z,8.37
2018-01-10T10:38:12.840Z,8.42
2018-01-10T10:39:12.830Z,8.38
2018-01-10T10:40:33.829Z,8.36
2018-01-10T10:41:12.818Z,8.42
2018-01-10T10:42:12.818Z,8.37
2018-01-10T10:43:12.813Z,8.38
2018-01-10T10:44:12.797Z,8.52
2018-01-10T10:45:12.791Z,8.58
2018-01-10T10:46:33.794Z,8.55
2018-01-10T10:47:12.797Z,8.52
2018-01-10T10:48:12.791Z,8.56
2018-01-10T10:49:12.771Z,8.64
2018-01-10T10:50:12.771Z,8.71
2018-01-10T10:51:12.758Z,8.69
2018-01-10T10:52:33.757Z,8.73
2018-01-10T10:53:12.755Z,8.76
2018-01-10T10:54:12.741Z,8.84
2018-01-10T10:55:12.730Z,8.85
2018-01-10T10:56:12.740Z,8.87
2018-01-10T10:57:12.846Z,8.89
2018-01-10T10:58:33.726Z,8.91
2018-01-10T10:59:12.708Z,8.89
2018-01-10T11:00:12.701Z,8.94
2018-01-10T11:01:12.706Z,8.95
2018-01-10T11:02:12.688Z,8.95
2018-01-10T11:03:12.683Z,8.99
2018-01-10T11:04:33.693Z,9.02
2018-01-10T11:05:12.683Z,8.94
2018-01-10T11:06:12.676Z,9.06
2018-01-10T11:07:12.661Z,9.02
2018-01-10T11:08:12.652Z,9.03
2018-01-10T11:09:12.649Z,9.11
2018-01-10T11:10:33.651Z,9.10
2018-01-10T11:11:12.637Z,9.10
2018-01-10T11:12:12.630Z,9.14
2018-01-10T11:13:12.628Z,9.03
2018-01-10T11:14:12.651Z,9.19
2018-01-10T11:15:12.616Z,9.21
2018-01-10T11:16:33.616Z,9.26
2018-01-10T11:17:12.605Z,9.19
2018-01-10T11:18:12.597Z,9.21
2018-01-10T11:19:12.593Z,9.21
2018-01-10T11:20:12.587Z,9.34
2018-01-10T11:21:12.579Z,9.40
2018-01-10T11:22:33.581Z,9.37
2018-01-10T11:23:12.570Z,9.39
2018-01-10T11:24:12.562Z,9.48
2018-01-10T11:25:12.555Z,9.47
2018-01-10T11:26:12.547Z,9.51
2018-01-10T11:27:12.548Z,9.54
2018-01-10T11:28:33.545Z,9.54
2018-01-10T11:29:12.535Z,9.54
2018-01-10T11:30:12.535Z,9.54
2018-01-10T11:31:12.523Z,9.61
2018-01-10T11:32:12.517Z,9.65
2018-01-10T11:33:12.512Z,9.59
2018-01-10T11:34:33.513Z,9.59
2018-01-10T11:35:12.500Z,9.51
2018-01-10T11:36:12.491Z,9.59
2018-01-10T11:37:12.488Z,9.56
2018-01-10T11:38:12.482Z,9.62
2018-01-10T11:39:12.478Z,9.64
2018-01-10T11:40:33.474Z,9.51
2018-01-10T11:41:12.464Z,9.54
2018-01-10T11:42:12.461Z,9.54
2018-01-10T11:43:12.454Z,9.50
2018-01-10T11:44:12.455Z,9.47
2018-01-10T11:45:12.445Z,9.56
2018-01-10T11:46:33.445Z,9.51
2018-01-10T11:47:12.432Z,9.51
2018-01-10T11:48:12.428Z,9.48
2018-01-10T11:49:12.422Z,9.44
2018-01-10T11:50:12.417Z,9.44
2018-01-10T11:51:12.412Z,9.37
2018-01-10T11:52:33.409Z,9.46
2018-01-10T11:53:12.395Z,9.39
2018-01-10T11:54:12.393Z,9.41
2018-01-10T11:55:12.388Z,9.40
2018-01-10T11:56:12.383Z,9.46
2018-01-10T11:57:12.376Z,9.47
2018-01-10T11:58:33.402Z,9.51
2018-01-10T11:59:12.366Z,9.59
2018-01-10T12:00:12.358Z,9.50
2018-01-10T12:01:12.355Z,9.51
2018-01-10T12:02:12.348Z,9.48
2018-01-10T12:03:12.350Z,9.62
2018-01-10T12:04:33.342Z,9.64
2018-01-10T12:05:12.333Z,9.65
2018-01-10T12:06:12.327Z,9.79
2018-01-10T12:07:12.335Z,9.73
2018-01-10T12:08:12.314Z,9.72
2018-01-10T12:09:12.309Z,9.83
2018-01-10T12:10:33.311Z,9.80
2018-01-10T12:11:12.303Z,9.91
2018-01-10T12:12:12.291Z,9.98
2018-01-10T12:13:12.315Z,9.97
2018-01-10T12:14:12.281Z,10.05
2018-01-10T12:15:12.273Z,10.09
2018-01-10T12:16:33.889Z,10.09
2018-01-10T12:17:12.262Z,10.12
2018-01-10T12:18:12.259Z,10.26
2018-01-10T12:19:12.256Z,10.25
2018-01-10T12:20:12.254Z,10.23
2018-01-10T12:21:12.240Z,10.30
2018-01-10T12:22:33.893Z,10.34
2018-01-10T12:23:12.233Z,10.30
2018-01-10T12:24:12.225Z,10.35
2018-01-10T12:25:12.224Z,10.40
2018-01-10T12:26:12.217Z,10.41
2018-01-10T12:27:12.207Z,10.46
2018-01-10T12:28:33.211Z,10.49
2018-01-10T12:29:12.199Z,10.57
2018-01-10T12:30:12.201Z,10.53
2018-01-10T12:31:12.187Z,10.41
2018-01-10T12:32:12.184Z,10.28
2018-01-10T12:33:12.178Z,10.28
2018-01-10T12:34:33.180Z,10.23
2018-01-10T12:35:12.170Z,10.28
2018-01-10T12:36:12.166Z,10.26
2018-01-10T12:37:12.157Z,10.19
2018-01-10T12:38:12.159Z,10.15
2018-01-10T12:39:12.147Z,10.12
2018-01-10T12:40:33.151Z,10.22
2018-01-10T12:41:12.148Z,10.10
2018-01-10T12:42:12.134Z,10.16
2018-01-10T12:43:12.128Z,10.17
2018-01-10T12:44:12.122Z,10.26
2018-01-10T12:45:12.118Z,10.10
2018-01-10T12:46:33.122Z,10.15
2018-01-10T12:47:12.107Z,10.16
2018-01-10T12:48:12.102Z,10.15
2018-01-10T12:49:12.104Z,10.09
2018-01-10T12:50:12.095Z,10.10
2018-01-10T12:51:12.089Z,10.13
2018-01-10T12:52:33.096Z,10.13
2018-01-10T12:53:12.075Z,10.12
2018-01-10T12:54:12.070Z,10.15
2018-01-10T12:55:12.069Z,10.12
2018-01-10T12:56:12.060Z,10.12
2018-01-10T12:57:12.056Z,10.13
2018-01-10T12:58:33.072Z,10.09
2018-01-10T12:59:12.044Z,10.19
2018-01-10T13:00:12.038Z,10.07
2018-01-10T13:01:12.035Z,10.05
2018-01-10T13:02:12.025Z,10.09
2018-01-10T13:03:12.024Z,10.13
2018-01-10T13:04:33.026Z,10.10
2018-01-10T13:05:12.012Z,10.07
2018-01-10T13:06:12.012Z,10.13
2018-01-10T13:07:12.003Z,10.15
2018-01-10T13:08:12.044Z,10.09
2018-01-10T13:09:11.990Z,10.09
2018-01-10T13:10:33.025Z,10.04
2018-01-10T13:11:11.981Z,10.10
2018-01-10T13:12:11.974Z,10.04
2018-01-10T13:13:11.972Z,10.09
2018-01-10T13:14:11.972Z,10.10
2018-01-10T13:15:11.976Z,10.04
2018-01-10T13:16:32.961Z,10.10
2018-01-10T13:17:11.951Z,10.12